createdAt,value
2018-08-12T00:01:01.045Z,14.50
2018-08-12T00:03:29.787Z,14.50
2018-08-12T00:05:58.290Z,14.40
2018-08-12T00:08:26.749Z,14.40
2018-08-12T00:10:55.229Z,14.40
2018-08-12T00:13:23.832Z,14.40
2018-08-12T00:15:52.241Z,14.30
2018-08-12T00:18:20.629Z,14.30
2018-08-12T00:20:49.239Z,14.30
2018-08-12T00:23:17.652Z,14.20
2018-08-12T00:25:46.179Z,14.20
2018-08-12T00:28:14.671Z,14.10
2018-08-12T00:30:43.093Z,14.00
2018-08-12T00:33:12.274Z,14.00
2018-08-12T00:35:40.713Z,14.00
2018-08-12T00:38:09.153Z,14.00
2018-08-12T00:40:37.638Z,14.00
2018-08-12T00:43:06.531Z,14.00
2018-08-12T00:45:34.980Z,13.90
2018-08-12T00:48:03.538Z,13.80
2018-08-12T00:50:32.354Z,13.80
2018-08-12T00:53:00.862Z,13.80
2018-08-12T00:55:29.260Z,13.80
2018-08-12T00:57:58.752Z,13.80
2018-08-12T01:00:27.113Z,13.80
2018-08-12T01:02:55.579Z,13.70
2018-08-12T01:05:24.348Z,13.70
2018-08-12T01:07:52.752Z,13.70
2018-08-12T01:10:21.299Z,13.70
2018-08-12T01:12:50.021Z,13.60
2018-08-12T01:15:20.162Z,13.60
2018-08-12T01:17:48.562Z,13.60
2018-08-12T01:20:18.953Z,13.60
2018-08-12T01:22:47.373Z,13.60
2018-08-12T01:25:15.796Z,13.60
2018-08-12T01:27:44.268Z,13.50
2018-08-12T01:30:16.149Z,13.50
2018-08-12T01:32:45.201Z,13.50
2018-08-12T01:35:14.397Z,13.50
2018-08-12T01:37:44.021Z,13.50
2018-08-12T01:40:13.891Z,13.40
2018-08-12T01:42:42.761Z,13.30
2018-08-12T01:45:13.274Z,13.50
2018-08-12T01:47:41.752Z,13.50
2018-08-12T01:50:11.581Z,13.50
2018-08-12T01:52:40.187Z,13.40
2018-08-12T01:55:10.008Z,13.50
2018-08-12T01:57:38.560Z,13.50
2018-08-12T02:00:08.776Z,13.50
2018-08-12T02:02:37.704Z,13.50
2018-08-12T02:05:06.817Z,13.50
2018-08-12T02:07:35.197Z,13.50
2018-08-12T02:10:03.645Z,13.50
2018-08-12T02:12:32.287Z,13.60
2018-08-12T02:15:00.652Z,13.60
2018-08-12T02:17:29.385Z,13.60
2018-08-12T02:19:58.061Z,13.50
2018-08-12T02:22:26.525Z,13.50
2018-08-12T02:24:54.912Z,13.50
2018-08-12T02:27:23.333Z,13.50
2018-08-12T02:29:51.785Z,13.50
2018-08-12T02:32:20.441Z,13.50
2018-08-12T02:34:48.863Z,13.50
2018-08-12T02:37:17.324Z,13.50
2018-08-12T02:39:46.020Z,13.40
2018-08-12T02:42:14.477Z,13.40
2018-08-12T02:44:42.991Z,13.30
2018-08-12T02:47:11.645Z,13.30
2018-08-12T02:49:40.126Z,13.30
2018-08-12T02:52:08.598Z,13.20
2018-08-12T02:54:37.096Z,13.20
2018-08-12T02:57:05.549Z,13.20
2018-08-12T02:59:34.132Z,13.20
2018-08-12T03:02:02.506Z,13.20
2018-08-12T03:04:30.907Z,13.20
2018-08-12T03:06:59.827Z,13.20
2018-08-12T03:09:28.192Z,13.20
2018-08-12T03:11:56.576Z,13.20
2018-08-12T03:14:25.157Z,13.20
2018-08-12T03:16:53.573Z,13.20
2018-08-12T03:19:22.204Z,13.20
2018-08-12T03:21:50.797Z,13.20
2018-08-12T03:24:19.166Z,13.20
2018-08-12T03:26:47.564Z,13.20
2018-08-12T03:29:15.978Z,13.10
2018-08-12T03:31:44.364Z,13.10
2018-08-12T03:34:13.001Z,13.10
2018-08-12T03:36:41.396Z,13.10
2018-08-12T03:39:11.042Z,13.10
2018-08-12T03:41:39.785Z,13.10
2018-08-12T03:44:08.180Z,13.10
2018-08-12T03:46:36.820Z,13.10
2018-08-12T03:49:05.672Z,13.10
2018-08-12T03:51:34.141Z,13.10
2018-08-12T03:54:02.572Z,13.10
2018-08-12T03:56:31.217Z,13.10
2018-08-12T03:58:59.920Z,13.00
2018-08-12T04:01:28.332Z,13.00
2018-08-12T04:03:56.941Z,13.10
2018-08-12T04:06:25.415Z,13.10
2018-08-12T04:08:53.824Z,13.10
2018-08-12T04:11:22.521Z,13.10
2018-08-12T04:13:50.912Z,13.10
2018-08-12T04:16:19.313Z,13.10
2018-08-12T04:18:47.769Z,13.10
2018-08-12T04:21:16.400Z,13.10
2018-08-12T04:23:44.772Z,13.20
2018-08-12T04:26:13.134Z,13.20
2018-08-12T04:28:41.856Z,13.20
2018-08-12T04:31:10.285Z,13.20
2018-08-12T04:33:38.696Z,13.30
2018-08-12T04:36:07.325Z,13.30
2018-08-12T04:38:35.692Z,13.30
2018-08-12T04:41:04.341Z,13.40
2018-08-12T04:43:32.932Z,13.40
2018-08-12T04:46:01.866Z,13.40
2018-08-12T04:48:30.440Z,13.40
2018-08-12T04:50:58.847Z,13.50
2018-08-12T04:53:27.284Z,13.50
2018-08-12T04:55:56.201Z,13.60
2018-08-12T04:58:24.861Z,13.60
2018-08-12T05:00:53.277Z,13.60
2018-08-12T05:03:22.112Z,13.60
2018-08-12T05:05:50.641Z,13.70
2018-08-12T05:08:19.046Z,13.80
2018-08-12T05:10:47.994Z,13.90
2018-08-12T05:13:16.425Z,14.00
2018-08-12T05:15:44.793Z,14.20
2018-08-12T05:18:13.386Z,14.60
2018-08-12T05:20:41.837Z,14.90
2018-08-12T05:23:10.307Z,15.30
2018-08-12T05:25:38.889Z,15.60
2018-08-12T05:28:07.336Z,16.00
2018-08-12T05:30:35.808Z,16.30
2018-08-12T05:33:04.680Z,16.60
2018-08-12T05:35:33.217Z,17.20
2018-08-12T05:38:02.353Z,18.30
2018-08-12T05:40:31.014Z,18.90
2018-08-12T05:42:59.415Z,19.60
2018-08-12T05:45:27.821Z,20.20
2018-08-12T05:47:56.616Z,20.80
2018-08-12T05:50:25.148Z,20.70
2018-08-12T05:52:53.576Z,20.80
2018-08-12T05:55:22.491Z,21.30
2018-08-12T05:57:51.009Z,21.50
2018-08-12T06:00:19.609Z,21.50
2018-08-12T06:02:48.096Z,22.00
2018-08-12T06:05:16.697Z,22.30
2018-08-12T06:07:45.191Z,22.80
2018-08-12T06:10:14.170Z,22.70
2018-08-12T06:12:42.935Z,22.40
2018-08-12T06:15:15.284Z,22.50
2018-08-12T06:17:44.667Z,22.00
2018-08-12T06:20:13.466Z,21.60
2018-08-12T06:22:41.880Z,21.50
2018-08-12T06:25:11.704Z,21.70
2018-08-12T06:27:40.172Z,21.90
2018-08-12T06:30:12.025Z,21.80
2018-08-12T06:32:40.473Z,21.80
2018-08-12T06:35:09.996Z,22.40
2018-08-12T06:37:39.004Z,22.90
2018-08-12T06:40:10.296Z,23.00
2018-08-12T06:42:39.966Z,23.20
2018-08-12T06:45:11.163Z,22.80
2018-08-12T06:47:40.126Z,22.60
2018-08-12T06:50:09.576Z,22.60
2018-08-12T06:52:38.671Z,22.90
2018-08-12T06:55:08.256Z,23.10
2018-08-12T06:57:36.857Z,22.90
2018-08-12T07:00:07.698Z,22.80
2018-08-12T07:02:36.849Z,22.70
2018-08-12T07:05:06.554Z,22.80
2018-08-12T07:07:35.225Z,22.60
2018-08-12T07:10:04.897Z,22.80
2018-08-12T07:12:33.657Z,23.10
2018-08-12T07:15:03.029Z,23.50
2018-08-12T07:17:31.446Z,23.60
2018-08-12T07:20:00.069Z,22.90
2018-08-12T07:22:28.457Z,22.40
2018-08-12T07:24:56.909Z,22.20
2018-08-12T07:27:25.590Z,22.20
2018-08-12T07:29:54.014Z,22.60
2018-08-12T07:32:22.492Z,22.50
2018-08-12T07:34:51.117Z,22.30
2018-08-12T07:37:19.553Z,22.10
2018-08-12T07:39:48.011Z,21.70
2018-08-12T07:42:16.705Z,21.70
2018-08-12T07:44:45.136Z,22.10
2018-08-12T07:47:13.516Z,22.40
2018-08-12T07:49:42.108Z,23.10
2018-08-12T07:52:10.527Z,23.30
2018-08-12T07:54:39.053Z,23.60
2018-08-12T07:57:07.542Z,23.90
2018-08-12T07:59:36.205Z,23.90
2018-08-12T08:02:04.891Z,23.30
2018-08-12T08:04:33.578Z,23.00
2018-08-12T08:07:02.772Z,22.70
2018-08-12T08:09:31.165Z,22.00
2018-08-12T08:11:59.576Z,21.90
2018-08-12T08:14:28.138Z,21.90
2018-08-12T08:16:56.568Z,21.90
2018-08-12T08:19:24.989Z,22.10
2018-08-12T08:21:53.521Z,22.10
2018-08-12T08:24:21.919Z,22.30
2018-08-12T08:26:50.388Z,22.20
2018-08-12T08:29:19.080Z,22.10
2018-08-12T08:31:47.802Z,22.20
2018-08-12T08:34:16.025Z,22.30
2018-08-12T08:36:44.678Z,22.50
2018-08-12T08:39:14.384Z,22.80
2018-08-12T08:41:43.050Z,22.90
2018-08-12T08:44:11.906Z,22.70
2018-08-12T08:46:40.336Z,22.00
2018-08-12T08:49:08.728Z,21.50
2018-08-12T08:51:37.382Z,21.90
2018-08-12T08:54:06.010Z,22.30
2018-08-12T08:56:34.655Z,22.70
2018-08-12T08:59:04.025Z,22.70
2018-08-12T09:01:33.319Z,22.50
2018-08-12T09:04:02.004Z,22.40
2018-08-12T09:06:30.418Z,22.10
2018-08-12T09:08:59.056Z,22.10
2018-08-12T09:11:27.469Z,22.30
2018-08-12T09:13:55.868Z,22.90
2018-08-12T09:16:24.307Z,23.50
2018-08-12T09:18:52.985Z,24.00
2018-08-12T09:21:21.465Z,24.30
2018-08-12T09:23:49.933Z,23.70
2018-08-12T09:26:18.619Z,23.70
2018-08-12T09:28:47.042Z,24.00
2018-08-12T09:31:15.512Z,24.20
2018-08-12T09:33:44.121Z,24.10
2018-08-12T09:36:12.585Z,24.40
2018-08-12T09:38:41.028Z,24.60
2018-08-12T09:41:10.133Z,24.70
2018-08-12T09:43:38.541Z,24.80
2018-08-12T09:46:07.061Z,24.80
2018-08-12T09:48:35.693Z,24.90
2018-08-12T09:51:04.105Z,24.70
2018-08-12T09:53:33.548Z,24.40
2018-08-12T09:56:02.141Z,24.40
2018-08-12T09:58:30.543Z,23.70
2018-08-12T10:00:59.043Z,23.40
2018-08-12T10:03:27.778Z,23.40
2018-08-12T10:05:56.452Z,23.30
2018-08-12T10:08:24.928Z,23.30
2018-08-12T10:10:53.991Z,23.20
2018-08-12T10:13:22.493Z,23.10
2018-08-12T10:15:51.069Z,23.10
2018-08-12T10:18:20.185Z,22.90
2018-08-12T10:20:49.047Z,22.90
2018-08-12T10:23:17.446Z,23.10
2018-08-12T10:25:46.001Z,23.30
2018-08-12T10:28:14.460Z,23.50
2018-08-12T10:30:43.186Z,23.50
2018-08-12T10:33:11.681Z,23.60
2018-08-12T10:35:40.610Z,23.70
2018-08-12T10:38:09.431Z,23.80
2018-08-12T10:40:38.201Z,24.00
2018-08-12T10:43:06.563Z,24.00
2018-08-12T10:45:35.162Z,24.20
2018-08-12T10:48:04.847Z,24.10
2018-08-12T10:50:34.209Z,24.00
2018-08-12T10:53:02.636Z,24.00
2018-08-12T10:55:31.277Z,23.90
2018-08-12T10:57:59.998Z,23.70
2018-08-12T11:00:31.531Z,23.80
2018-08-12T11:03:00.201Z,24.00
2018-08-12T11:05:28.617Z,23.90
2018-08-12T11:07:58.592Z,24.10
2018-08-12T11:10:27.831Z,24.00
2018-08-12T11:12:57.228Z,23.80
2018-08-12T11:15:25.807Z,23.60
2018-08-12T11:17:54.358Z,23.20
2018-08-12T11:20:22.912Z,22.90
2018-08-12T11:22:51.528Z,22.70
2018-08-12T11:25:19.942Z,22.60
2018-08-12T11:27:48.521Z,22.70
2018-08-12T11:30:18.120Z,22.50
2018-08-12T11:32:46.589Z,22.50
2018-08-12T11:35:16.392Z,22.60
2018-08-12T11:37:45.373Z,22.80
2018-08-12T11:40:14.642Z,22.90
2018-08-12T11:42:43.347Z,22.80
2018-08-12T11:45:14.354Z,22.70
2018-08-12T11:47:43.422Z,22.70
2018-08-12T11:50:12.197Z,22.60
2018-08-12T11:52:41.545Z,22.60
2018-08-12T11:55:11.802Z,22.30
2018-08-12T11:57:40.798Z,22.20
2018-08-12T12:00:12.988Z,22.20
2018-08-12T12:02:41.514Z,22.20
2018-08-12T12:05:12.277Z,22.20
2018-08-12T12:07:41.073Z,22.30
2018-08-12T12:10:12.333Z,22.50
2018-08-12T12:12:41.862Z,22.60
2018-08-12T12:15:11.012Z,22.70
2018-08-12T12:18:10.487Z,22.90
2018-08-12T12:20:39.205Z,23.00
2018-08-12T12:23:07.767Z,23.40
2018-08-12T12:25:36.173Z,23.30
2018-08-12T12:28:04.938Z,23.10
2018-08-12T12:30:34.469Z,23.30
2018-08-12T12:33:03.065Z,23.30
2018-08-12T12:35:31.881Z,23.40
2018-08-12T12:38:00.621Z,23.50
2018-08-12T12:40:29.004Z,23.60
2018-08-12T12:42:57.638Z,23.70
2018-08-12T12:45:26.409Z,23.90
2018-08-12T12:47:54.844Z,24.00
2018-08-12T12:50:24.126Z,24.10
2018-08-12T12:52:53.642Z,23.90
2018-08-12T12:55:22.919Z,23.50
2018-08-12T12:57:51.459Z,23.60
2018-08-12T13:00:21.133Z,23.60
2018-08-12T13:02:49.979Z,23.70
2018-08-12T13:05:19.644Z,23.70
2018-08-12T13:07:49.009Z,23.60
2018-08-12T13:10:18.221Z,23.60
2018-08-12T13:12:46.993Z,23.40
2018-08-12T13:15:16.276Z,23.20
2018-08-12T13:17:44.704Z,23.10
2018-08-12T13:20:15.826Z,23.10
2018-08-12T13:22:46.819Z,23.00
2018-08-12T13:25:17.390Z,22.90
2018-08-12T13:27:46.118Z,22.90
2018-08-12T13:30:15.531Z,22.90
2018-08-12T13:32:45.141Z,22.90
2018-08-12T13:35:13.659Z,23.00
2018-08-12T13:37:42.316Z,23.10
2018-08-12T13:40:13.657Z,23.30
2018-08-12T13:42:42.803Z,23.50
2018-08-12T13:45:12.137Z,23.40
2018-08-12T13:47:42.181Z,23.40
2018-08-12T13:50:13.777Z,23.20
2018-08-12T13:52:42.404Z,23.20
2018-08-12T13:55:10.917Z,23.10
2018-08-12T13:57:39.455Z,23.10
2018-08-12T14:00:11.189Z,22.90
2018-08-12T14:02:40.124Z,22.70
2018-08-12T14:05:09.556Z,22.70
2018-08-12T14:07:38.195Z,22.70
2018-08-12T14:10:08.125Z,22.80
2018-08-12T14:12:36.757Z,22.90
2018-08-12T14:15:07.197Z,22.90
2018-08-12T14:17:35.812Z,22.80
2018-08-12T14:20:05.601Z,22.80
2018-08-12T14:22:34.988Z,22.70
2018-08-12T14:25:03.746Z,22.70
2018-08-12T14:27:32.253Z,22.70
2018-08-12T14:30:00.827Z,22.70
2018-08-12T14:32:29.412Z,22.70
2018-08-12T14:34:57.893Z,22.70
2018-08-12T14:37:26.910Z,22.80
2018-08-12T14:39:55.350Z,22.70
2018-08-12T14:42:24.079Z,22.70
2018-08-12T14:44:52.505Z,22.70
2018-08-12T14:47:20.962Z,22.70
2018-08-12T14:49:51.613Z,22.70
2018-08-12T14:52:20.137Z,22.80
2018-08-12T14:54:48.627Z,23.00
2018-08-12T14:57:17.195Z,23.10
2018-08-12T14:59:45.646Z,23.20
2018-08-12T15:02:14.121Z,23.20
2018-08-12T15:04:42.651Z,23.30
2018-08-12T15:07:11.215Z,23.30
2018-08-12T15:09:39.576Z,23.30
2018-08-12T15:12:08.200Z,23.20
2018-08-12T15:14:36.665Z,23.20
2018-08-12T15:17:05.405Z,23.20
2018-08-12T15:19:34.194Z,23.10
2018-08-12T15:22:02.957Z,23.10
2018-08-12T15:24:31.377Z,23.10
2018-08-12T15:26:59.916Z,23.20
2018-08-12T15:29:28.334Z,23.20
2018-08-12T15:31:56.821Z,23.10
2018-08-12T15:34:25.373Z,23.10
2018-08-12T15:36:53.846Z,23.10
2018-08-12T15:39:22.237Z,23.10
2018-08-12T15:41:50.914Z,23.00
2018-08-12T15:44:19.340Z,23.00
2018-08-12T15:46:47.817Z,23.00
2018-08-12T15:49:16.401Z,22.90
2018-08-12T15:51:44.916Z,22.80
2018-08-12T15:54:13.379Z,22.70
2018-08-12T15:56:41.945Z,22.70
2018-08-12T15:59:10.339Z,22.60
2018-08-12T16:01:38.969Z,22.70
2018-08-12T16:04:07.438Z,22.70
2018-08-12T16:06:36.172Z,22.70
2018-08-12T16:09:07.394Z,22.70
2018-08-12T16:11:36.205Z,22.60
2018-08-12T16:14:05.234Z,22.60
2018-08-12T16:16:33.963Z,22.60
2018-08-12T16:19:02.409Z,22.60
2018-08-12T16:21:31.109Z,22.60
2018-08-12T16:23:59.886Z,22.60
2018-08-12T16:26:28.465Z,22.70
2018-08-12T16:28:57.056Z,22.80
2018-08-12T16:31:26.192Z,22.80
2018-08-12T16:33:54.669Z,22.90
2018-08-12T16:36:23.289Z,22.90
2018-08-12T16:38:51.680Z,22.90
2018-08-12T16:41:20.131Z,22.90
2018-08-12T16:43:48.877Z,22.80
2018-08-12T16:46:17.313Z,22.70
2018-08-12T16:48:45.709Z,22.70
2018-08-12T16:51:14.149Z,22.60
2018-08-12T16:53:42.609Z,22.60
2018-08-12T16:56:11.810Z,22.60
2018-08-12T16:58:41.164Z,22.60
2018-08-12T17:01:10.389Z,22.50
2018-08-12T17:03:39.474Z,22.60
2018-08-12T17:06:08.917Z,22.50
2018-08-12T17:08:38.425Z,22.60
2018-08-12T17:11:07.517Z,22.50
2018-08-12T17:13:37.132Z,22.60
2018-08-12T17:16:08.984Z,22.60
2018-08-12T17:18:44.980Z,22.60
2018-08-12T17:21:14.709Z,22.50
2018-08-12T17:23:44.074Z,22.60
2018-08-12T17:26:13.260Z,22.50
2018-08-12T17:28:43.269Z,22.60
2018-08-12T17:31:12.855Z,22.50
2018-08-12T17:33:42.245Z,22.50
2018-08-12T17:36:11.557Z,22.50
2018-08-12T17:38:40.111Z,22.50
2018-08-12T17:41:09.325Z,22.40
2018-08-12T17:43:37.864Z,22.40
2018-08-12T17:46:07.167Z,22.40
2018-08-12T17:48:36.632Z,22.30
2018-08-12T17:51:05.201Z,22.30
2018-08-12T17:53:33.676Z,22.30
2018-08-12T17:56:02.251Z,22.30
2018-08-12T17:58:30.676Z,22.30
2018-08-12T18:00:59.120Z,22.30
2018-08-12T18:03:27.945Z,22.20
2018-08-12T18:05:56.530Z,22.20
2018-08-12T18:08:25.629Z,22.20
2018-08-12T18:10:54.506Z,22.20
2018-08-12T18:13:23.296Z,22.10
2018-08-12T18:15:52.639Z,22.10
2018-08-12T18:18:21.593Z,22.10
2018-08-12T18:20:50.069Z,22.10
2018-08-12T18:23:18.741Z,22.10
2018-08-12T18:25:47.493Z,22.00
2018-08-12T18:28:16.266Z,22.00
2018-08-12T18:30:44.988Z,21.90
2018-08-12T18:33:13.821Z,21.90
2018-08-12T18:35:42.520Z,21.80
2018-08-12T18:38:11.169Z,21.80
2018-08-12T18:40:39.858Z,21.80
2018-08-12T18:43:08.329Z,21.70
2018-08-12T18:45:37.309Z,21.70
2018-08-12T18:48:06.362Z,21.70
2018-08-12T18:50:35.167Z,21.70
2018-08-12T18:53:03.840Z,21.60
2018-08-12T18:55:32.360Z,21.80
2018-08-12T18:58:00.965Z,21.50
2018-08-12T19:00:29.525Z,21.50
2018-08-12T19:02:58.176Z,21.50
2018-08-12T19:05:26.757Z,21.50
2018-08-12T19:07:55.609Z,21.50
2018-08-12T19:10:24.055Z,21.40
2018-08-12T19:12:52.716Z,21.40
2018-08-12T19:15:21.219Z,21.40
2018-08-12T19:17:49.892Z,21.40
2018-08-12T19:20:18.790Z,21.40
2018-08-12T19:22:47.457Z,21.40
2018-08-12T19:25:15.846Z,21.30
2018-08-12T19:27:44.560Z,21.30
2018-08-12T19:30:13.784Z,21.30
2018-08-12T19:32:42.239Z,21.30
2018-08-12T19:35:11.887Z,21.20
2018-08-12T19:37:41.014Z,21.20
2018-08-12T19:40:09.769Z,21.20
2018-08-12T19:42:38.456Z,21.20
2018-08-12T19:45:08.501Z,21.20
2018-08-12T19:47:37.524Z,21.20
2018-08-12T19:50:06.622Z,21.20
2018-08-12T19:52:35.113Z,21.10
2018-08-12T19:55:03.757Z,21.10
2018-08-12T19:57:32.276Z,21.10
2018-08-12T20:00:00.861Z,21.10
2018-08-12T20:02:29.445Z,21.10
2018-08-12T20:04:58.152Z,21.00
2018-08-12T20:07:26.693Z,21.00
2018-08-12T20:09:55.228Z,21.00
2018-08-12T20:12:24.033Z,21.00
2018-08-12T20:14:52.620Z,20.90
2018-08-12T20:17:21.085Z,20.90
2018-08-12T20:19:49.825Z,20.90
2018-08-12T20:22:18.265Z,20.90
2018-08-12T20:24:46.853Z,20.90
2018-08-12T20:27:15.285Z,20.90
2018-08-12T20:29:44.225Z,20.80
2018-08-12T20:32:12.972Z,20.80
2018-08-12T20:34:41.540Z,20.80
2018-08-12T20:37:10.277Z,20.80
2018-08-12T20:39:38.769Z,20.80
2018-08-12T20:42:07.617Z,20.80
2018-08-12T20:44:36.076Z,20.70
2018-08-12T20:47:04.464Z,20.70
2018-08-12T20:49:33.165Z,20.70
2018-08-12T20:52:02.103Z,20.70
2018-08-12T20:54:30.625Z,20.70
2018-08-12T20:56:59.262Z,20.70
2018-08-12T20:59:27.886Z,20.70
2018-08-12T21:01:56.277Z,20.70
2018-08-12T21:04:25.110Z,20.70
2018-08-12T21:06:53.609Z,20.60
2018-08-12T21:09:22.061Z,20.70
2018-08-12T21:11:50.604Z,20.70
2018-08-12T21:14:19.091Z,20.60
2018-08-12T21:16:47.525Z,20.60
2018-08-12T21:19:16.125Z,20.60
2018-08-12T21:21:44.532Z,20.60
2018-08-12T21:24:12.909Z,20.60
2018-08-12T21:26:41.590Z,20.60
2018-08-12T21:29:09.983Z,20.60
2018-08-12T21:31:38.349Z,20.80
2018-08-12T21:34:09.078Z,20.50
2018-08-12T21:36:37.656Z,20.50
2018-08-12T21:39:09.442Z,20.50
2018-08-12T21:41:37.862Z,20.50
2018-08-12T21:44:06.836Z,20.50
2018-08-12T21:46:35.272Z,20.50
2018-08-12T21:49:04.093Z,20.40
2018-08-12T21:51:32.686Z,20.40
2018-08-12T21:54:01.134Z,20.40
2018-08-12T21:56:30.114Z,20.40
2018-08-12T21:58:58.621Z,20.40
2018-08-12T22:01:27.036Z,20.40
2018-08-12T22:03:55.658Z,20.40
2018-08-12T22:06:24.057Z,20.40
2018-08-12T22:08:52.513Z,20.40
2018-08-12T22:11:21.121Z,20.40
2018-08-12T22:13:49.552Z,20.40
2018-08-12T22:16:17.945Z,20.40
2018-08-12T22:18:46.553Z,20.40
2018-08-12T22:21:14.948Z,20.40
2018-08-12T22:23:43.408Z,20.30
2018-08-12T22:26:12.077Z,20.30
2018-08-12T22:28:40.533Z,20.30
2018-08-12T22:31:08.982Z,20.30
2018-08-12T22:33:38.186Z,20.30
2018-08-12T22:36:06.595Z,20.30
2018-08-12T22:38:35.025Z,20.30
2018-08-12T22:41:03.649Z,20.30
2018-08-12T22:43:32.070Z,20.20
2018-08-12T22:46:00.518Z,20.20
2018-08-12T22:48:28.960Z,20.20
2018-08-12T22:50:57.557Z,20.10
2018-08-12T22:53:25.949Z,20.10
2018-08-12T22:55:54.454Z,20.10
2018-08-12T22:58:22.899Z,20.20
2018-08-12T23:00:51.321Z,20.10
2018-08-12T23:03:19.802Z,20.10
2018-08-12T23:05:48.474Z,20.10
2018-08-12T23:08:16.845Z,20.00
2018-08-12T23:10:45.266Z,20.00
2018-08-12T23:13:14.002Z,20.00
2018-08-12T23:16:21.420Z,20.00
2018-08-12T23:18:49.877Z,20.00
2018-08-12T23:21:19.406Z,19.90
2018-08-12T23:23:48.954Z,19.90
2018-08-12T23:26:19.689Z,19.90
2018-08-12T23:28:48.173Z,19.90
2018-08-12T23:31:16.565Z,19.90
2018-08-12T23:33:45.045Z,19.80
2018-08-12T23:36:13.674Z,19.80
2018-08-12T23:38:42.128Z,19.80
2018-08-12T23:41:11.314Z,19.80
2018-08-12T23:43:39.799Z,19.80
2018-08-12T23:46:09.038Z,19.80
2018-08-12T23:48:38.632Z,19.80
2018-08-12T23:51:07.316Z,19.70
2018-08-12T23:53:35.709Z,19.70
2018-08-12T23:56:04.445Z,19.70
2018-08-12T23:58:32.905Z,19.70
